createdAt,value
2023-04-06T00:00:16.949Z,11.63
2023-04-06T00:02:44.129Z,11.82
2023-04-06T00:05:11.410Z,10.50
2023-04-06T00:07:38.652Z,10.00
2023-04-06T00:10:06.093Z,15.88
2023-04-06T00:12:33.259Z,11.90
2023-04-06T00:15:02.373Z,10.70
2023-04-06T00:17:29.537Z,11.82
2023-04-06T00:19:56.816Z,14.48
2023-04-06T00:22:23.907Z,14.02
2023-04-06T00:24:51.025Z,9.77
2023-04-06T00:27:18.195Z,10.15
2023-04-06T00:29:46.263Z,10.68
2023-04-06T00:32:13.547Z,12.07
2023-04-06T00:34:40.932Z,10.00
2023-04-06T00:37:08.226Z,12.73
2023-04-06T00:39:35.444Z,13.02
2023-04-06T00:42:02.554Z,13.27
2023-04-06T00:44:29.712Z,12.63
2023-04-06T00:46:56.858Z,12.93
2023-04-06T00:49:24.346Z,10.43
2023-04-06T00:51:51.512Z,11.02
2023-04-06T00:54:18.872Z,12.68
2023-04-06T00:56:46.076Z,11.68
2023-04-06T00:59:13.645Z,12.73
2023-04-06T01:01:40.929Z,14.60
2023-04-06T01:04:08.146Z,13.77
2023-04-06T01:06:35.337Z,11.88
2023-04-06T01:09:02.407Z,13.93
2023-04-06T01:11:29.597Z,12.27
2023-04-06T01:13:57.062Z,10.95
2023-04-06T01:16:24.544Z,15.57
2023-04-06T01:18:51.929Z,12.57
2023-04-06T01:21:19.027Z,12.18
2023-04-06T01:23:47.005Z,12.90
2023-04-06T01:26:14.488Z,9.90
2023-04-06T01:28:41.622Z,13.90
2023-04-06T01:31:09.441Z,16.05
2023-04-06T01:33:36.678Z,11.23
2023-04-06T01:36:04.569Z,13.30
2023-04-06T01:38:31.822Z,10.35
2023-04-06T01:40:58.929Z,10.95
2023-04-06T01:43:26.452Z,14.10
2023-04-06T01:45:53.607Z,13.10
2023-04-06T01:48:21.046Z,12.70
2023-04-06T01:50:48.206Z,12.13
2023-04-06T01:53:16.512Z,14.63
2023-04-06T01:55:43.552Z,11.27
2023-04-06T01:58:10.650Z,12.40
2023-04-06T02:00:37.783Z,14.70
2023-04-06T02:03:05.014Z,10.88
2023-04-06T02:05:32.813Z,12.18
2023-04-06T02:08:00.036Z,13.60
2023-04-06T02:10:27.360Z,9.35
2023-04-06T02:12:54.640Z,16.88
2023-04-06T02:15:21.776Z,13.35
2023-04-06T02:17:48.938Z,12.02
2023-04-06T02:20:16.170Z,13.68
2023-04-06T02:22:43.286Z,13.90
2023-04-06T02:25:10.688Z,15.45
2023-04-06T02:27:37.937Z,15.05
2023-04-06T02:30:05.778Z,15.35
2023-04-06T02:32:32.893Z,15.00
2023-04-06T02:35:00.356Z,15.77
2023-04-06T02:37:27.768Z,15.35
2023-04-06T02:39:59.652Z,19.08
2023-04-06T02:42:26.752Z,17.08
2023-04-06T02:44:53.853Z,12.05
2023-04-06T02:47:21.035Z,17.27
2023-04-06T02:49:48.707Z,16.30
2023-04-06T02:52:16.005Z,12.73
2023-04-06T02:54:43.142Z,14.13
2023-04-06T02:57:10.320Z,14.82
2023-04-06T02:59:37.457Z,18.98
2023-04-06T03:02:04.682Z,19.75
2023-04-06T03:04:31.732Z,19.92
2023-04-06T03:07:01.759Z,23.10
2023-04-06T03:09:28.901Z,21.42
2023-04-06T03:11:56.373Z,22.90
2023-04-06T03:14:23.602Z,19.98
2023-04-06T03:16:51.026Z,24.55
2023-04-06T03:19:18.081Z,21.58
2023-04-06T03:21:45.317Z,18.60
2023-04-06T03:24:13.789Z,21.05
2023-04-06T03:26:41.135Z,19.45
2023-04-06T03:29:08.506Z,15.75
2023-04-06T03:31:36.016Z,18.60
2023-04-06T03:34:03.130Z,16.75
2023-04-06T03:36:31.849Z,15.93
2023-04-06T03:38:59.208Z,16.55
2023-04-06T03:41:26.397Z,12.75
2023-04-06T03:43:54.030Z,9.98
2023-04-06T03:46:21.263Z,13.70
2023-04-06T03:48:50.075Z,13.20
2023-04-06T03:51:17.240Z,13.05
2023-04-06T03:53:44.301Z,15.10
2023-04-06T03:56:11.410Z,12.65
2023-04-06T03:58:38.472Z,10.55
2023-04-06T04:01:05.810Z,13.00
2023-04-06T04:03:33.194Z,11.40
2023-04-06T04:06:00.610Z,9.00
2023-04-06T04:08:27.689Z,11.45
2023-04-06T04:10:54.723Z,15.50
2023-04-06T04:13:22.220Z,13.07
2023-04-06T04:15:49.290Z,15.23
2023-04-06T04:18:16.683Z,13.18
2023-04-06T04:20:43.777Z,16.05
2023-04-06T04:23:11.170Z,12.82
2023-04-06T04:25:38.251Z,11.10
2023-04-06T04:28:05.590Z,12.73
2023-04-06T04:30:32.639Z,13.52
2023-04-06T04:32:59.975Z,16.05
2023-04-06T04:35:28.314Z,13.02
2023-04-06T04:37:55.448Z,13.80
2023-04-06T04:40:22.623Z,15.32
2023-04-06T04:42:51.940Z,13.18
2023-04-06T04:45:19.105Z,15.45
2023-04-06T04:47:46.459Z,14.13
2023-04-06T04:50:13.681Z,11.90
2023-04-06T04:52:40.932Z,18.35
2023-04-06T04:55:08.154Z,16.92
2023-04-06T04:57:35.276Z,16.90
2023-04-06T05:00:03.144Z,15.27
2023-04-06T05:02:30.589Z,14.15
2023-04-06T05:04:57.875Z,14.32
2023-04-06T05:07:25.213Z,13.15
2023-04-06T05:09:52.369Z,13.65
2023-04-06T05:12:20.521Z,13.95
2023-04-06T05:14:47.675Z,14.23
2023-04-06T05:17:14.834Z,14.32
2023-04-06T05:19:41.900Z,18.65
2023-04-06T05:22:08.932Z,16.50
2023-04-06T05:24:36.213Z,15.27
2023-04-06T05:27:03.421Z,18.30
2023-04-06T05:29:30.920Z,20.10
2023-04-06T05:31:57.950Z,23.15
2023-04-06T05:34:25.033Z,22.73
2023-04-06T05:36:52.194Z,18.33
2023-04-06T05:39:19.332Z,20.58
2023-04-06T05:41:46.748Z,19.33
2023-04-06T05:44:14.140Z,14.93
2023-04-06T05:46:41.341Z,16.80
2023-04-06T05:49:08.873Z,14.75
2023-04-06T05:51:36.177Z,16.23
2023-04-06T05:54:03.262Z,15.45
2023-04-06T05:56:31.321Z,16.00
2023-04-06T05:58:58.500Z,16.35
2023-04-06T06:01:25.755Z,17.45
2023-04-06T06:03:52.861Z,15.57
2023-04-06T06:06:19.939Z,14.15
2023-04-06T06:08:47.039Z,15.48
2023-04-06T06:11:14.241Z,122.97
2023-04-06T06:13:41.347Z,63.85
2023-04-06T06:16:08.834Z,18.88
2023-04-06T06:18:37.387Z,31.80
2023-04-06T06:21:04.923Z,24.15
2023-04-06T06:23:32.129Z,24.48
2023-04-06T06:25:59.379Z,26.23
2023-04-06T06:28:27.326Z,25.92
2023-04-06T06:30:54.461Z,19.95
2023-04-06T06:33:21.585Z,17.70
2023-04-06T06:35:48.745Z,15.02
2023-04-06T06:38:15.957Z,13.68
2023-04-06T06:40:43.007Z,17.48
2023-04-06T06:43:10.119Z,16.83
2023-04-06T06:45:37.284Z,12.38
2023-04-06T06:48:04.603Z,13.35
2023-04-06T06:50:32.003Z,14.27
2023-04-06T06:52:59.168Z,18.25
2023-04-06T06:55:27.693Z,15.85
2023-04-06T06:57:55.141Z,12.45
2023-04-06T07:00:22.413Z,16.00
2023-04-06T07:02:49.767Z,16.15
2023-04-06T07:07:51.388Z,13.13
2023-04-06T07:10:18.526Z,14.27
2023-04-06T07:12:45.952Z,14.07
2023-04-06T07:15:13.165Z,12.50
2023-04-06T07:17:42.296Z,11.63
2023-04-06T07:20:09.926Z,12.35
2023-04-06T07:22:38.322Z,10.63
2023-04-06T07:25:05.705Z,12.02
2023-04-06T07:27:33.188Z,12.10
2023-04-06T07:30:00.459Z,15.82
2023-04-06T07:32:27.573Z,11.85
2023-04-06T07:34:54.780Z,11.75
2023-04-06T07:37:22.794Z,14.98
2023-04-06T07:39:51.958Z,13.07
2023-04-06T07:42:19.220Z,14.85
2023-04-06T07:44:46.396Z,10.70
2023-04-06T07:47:13.812Z,10.40
2023-04-06T07:49:41.053Z,13.48
2023-04-06T07:52:08.211Z,13.65
2023-04-06T07:54:35.516Z,10.20
2023-04-06T07:57:02.650Z,12.57
2023-04-06T07:59:29.728Z,15.38
2023-04-06T08:01:57.268Z,12.73
2023-04-06T08:04:24.362Z,11.82
2023-04-06T08:06:51.638Z,14.90
2023-04-06T08:09:18.741Z,13.07
2023-04-06T08:11:47.094Z,11.55
2023-04-06T08:14:14.200Z,12.50
2023-04-06T08:16:41.508Z,19.63
2023-04-06T08:19:10.299Z,13.90
2023-04-06T08:21:37.489Z,13.68
2023-04-06T08:24:04.749Z,15.30
2023-04-06T08:26:31.981Z,16.95
2023-04-06T08:28:59.148Z,14.30
2023-04-06T08:31:27.163Z,15.70
2023-04-06T08:33:54.446Z,14.35
2023-04-06T08:36:23.855Z,14.43
2023-04-06T08:38:51.296Z,14.25
2023-04-06T08:41:18.728Z,13.25
2023-04-06T08:43:49.657Z,13.93
2023-04-06T08:46:16.865Z,13.32
2023-04-06T08:48:44.390Z,15.20
2023-04-06T08:51:11.920Z,17.05
2023-04-06T08:53:39.472Z,16.55
2023-04-06T08:56:06.778Z,17.08
2023-04-06T08:58:38.598Z,16.73
2023-04-06T09:01:12.710Z,15.02
2023-04-06T09:03:41.133Z,17.90
2023-04-06T09:06:08.864Z,15.20
2023-04-06T09:08:36.411Z,17.58
2023-04-06T09:11:04.248Z,15.20
2023-04-06T09:13:31.449Z,16.05
2023-04-06T09:16:05.325Z,17.50
2023-04-06T09:18:33.148Z,16.23
2023-04-06T09:21:02.103Z,18.67
2023-04-06T09:23:29.409Z,19.45
2023-04-06T09:26:12.268Z,16.20
2023-04-06T09:28:46.563Z,18.55
2023-04-06T09:31:14.568Z,19.08
2023-04-06T09:33:46.408Z,17.58
2023-04-06T09:36:14.679Z,18.83
2023-04-06T09:38:52.464Z,16.27
2023-04-06T09:41:38.232Z,17.08
2023-04-06T09:44:06.391Z,16.65
2023-04-06T09:46:46.440Z,20.27
2023-04-06T09:49:18.386Z,19.38
2023-04-06T09:51:49.003Z,17.20
2023-04-06T09:54:25.273Z,14.88
2023-04-06T09:56:52.926Z,20.42
2023-04-06T09:59:40.488Z,16.73
2023-04-06T10:02:07.613Z,17.33
2023-04-06T10:04:40.677Z,17.30
2023-04-06T10:07:08.079Z,14.02
2023-04-06T10:09:37.117Z,18.55
2023-04-06T10:12:05.539Z,16.15
2023-04-06T10:14:38.932Z,19.80
2023-04-06T10:17:06.055Z,17.23
2023-04-06T10:19:41.677Z,14.30
2023-04-06T10:22:09.377Z,14.98
2023-04-06T10:24:37.136Z,18.73
2023-04-06T10:27:04.555Z,16.55
2023-04-06T10:29:44.936Z,19.05
2023-04-06T10:32:12.145Z,19.88
2023-04-06T10:34:39.406Z,16.67
2023-04-06T10:37:13.288Z,17.35
2023-04-06T10:39:56.281Z,19.38
2023-04-06T10:42:26.842Z,19.95
2023-04-06T10:44:54.135Z,18.27
2023-04-06T10:47:21.348Z,19.25
2023-04-06T10:49:48.521Z,18.25
2023-04-06T10:52:16.016Z,17.70
2023-04-06T10:54:44.978Z,21.13
2023-04-06T10:57:12.146Z,21.15
2023-04-06T10:59:43.428Z,18.63
2023-04-06T11:02:10.595Z,23.45
2023-04-06T11:04:37.837Z,19.02
2023-04-06T11:07:05.199Z,20.13
2023-04-06T11:09:37.550Z,19.13
2023-04-06T11:12:04.858Z,18.98
2023-04-06T11:14:31.966Z,18.65
2023-04-06T11:16:59.116Z,21.48
2023-04-06T11:19:26.510Z,18.55
2023-04-06T11:21:54.049Z,17.80
2023-04-06T11:24:21.812Z,17.95
2023-04-06T11:26:50.039Z,16.83
2023-04-06T11:29:17.701Z,18.58
2023-04-06T11:31:48.186Z,18.25
2023-04-06T11:34:19.125Z,19.98
2023-04-06T11:36:46.627Z,25.30
2023-04-06T11:39:24.735Z,20.27
2023-04-06T11:41:56.507Z,19.92
2023-04-06T11:44:36.528Z,16.73
2023-04-06T11:47:04.015Z,16.13
2023-04-06T11:49:31.424Z,17.73
2023-04-06T11:51:58.859Z,18.45
2023-04-06T11:54:39.308Z,20.58
2023-04-06T11:57:06.739Z,18.42
2023-04-06T11:59:34.311Z,18.60
2023-04-06T12:02:01.537Z,17.77
2023-04-06T12:04:28.742Z,18.40
2023-04-06T12:06:55.923Z,18.33
2023-04-06T12:09:23.070Z,16.70
2023-04-06T12:11:50.309Z,13.73
2023-04-06T12:14:17.477Z,16.63
2023-04-06T12:16:44.746Z,18.35
2023-04-06T12:19:11.870Z,15.77
2023-04-06T12:21:39.140Z,17.70
2023-04-06T12:24:06.714Z,20.65
2023-04-06T12:26:34.163Z,17.70
2023-04-06T12:29:07.501Z,16.38
2023-04-06T12:31:35.019Z,16.30
2023-04-06T12:34:03.166Z,18.90
2023-04-06T12:36:30.633Z,15.13
2023-04-06T12:38:57.824Z,18.27
2023-04-06T12:41:25.961Z,17.02
2023-04-06T12:43:53.181Z,15.40
2023-04-06T12:46:20.974Z,17.45
2023-04-06T12:48:48.761Z,17.67
2023-04-06T12:51:16.049Z,16.70
2023-04-06T12:53:43.567Z,16.38
2023-04-06T12:56:14.372Z,15.88
2023-04-06T12:58:44.374Z,17.95
2023-04-06T13:01:13.718Z,19.05
2023-04-06T13:03:41.343Z,19.87
2023-04-06T13:06:11.105Z,17.73
2023-04-06T13:08:39.128Z,20.02
2023-04-06T13:11:09.112Z,16.77
2023-04-06T13:13:36.605Z,16.63
2023-04-06T13:16:04.704Z,17.70
2023-04-06T13:18:33.348Z,17.83
2023-04-06T13:21:00.907Z,12.82
2023-04-06T13:23:28.116Z,15.10
2023-04-06T13:26:04.946Z,16.13
2023-04-06T13:28:32.416Z,16.17
2023-04-06T13:30:59.954Z,18.40
2023-04-06T13:33:27.206Z,16.40
2023-04-06T13:35:54.343Z,15.27
2023-04-06T13:38:21.737Z,19.15
2023-04-06T13:40:49.105Z,19.08
2023-04-06T13:43:16.729Z,21.33
2023-04-06T13:45:43.939Z,22.05
2023-04-06T13:48:11.314Z,22.85
2023-04-06T13:50:38.428Z,19.88
2023-04-06T13:53:05.487Z,17.40
2023-04-06T13:55:32.904Z,19.50
2023-04-06T13:58:00.405Z,18.17
2023-04-06T14:00:27.518Z,17.35
2023-04-06T14:02:57.811Z,20.88
2023-04-06T14:07:52.477Z,18.77
2023-04-06T14:10:22.160Z,19.13
2023-04-06T14:12:49.296Z,19.40
2023-04-06T14:15:16.393Z,16.30
2023-04-06T14:17:43.548Z,14.75
2023-04-06T14:20:14.964Z,16.85
2023-04-06T14:22:43.755Z,19.40
2023-04-06T14:25:14.218Z,17.23
2023-04-06T14:27:41.461Z,18.95
2023-04-06T14:30:09.290Z,16.27
2023-04-06T14:32:37.394Z,14.90
2023-04-06T14:35:07.058Z,13.48
2023-04-06T14:37:34.763Z,14.00
2023-04-06T14:40:01.892Z,16.17
2023-04-06T14:42:28.991Z,14.68
2023-04-06T14:44:56.033Z,15.65
2023-04-06T14:47:23.136Z,13.85
2023-04-06T14:49:54.252Z,15.35
2023-04-06T14:52:21.470Z,15.10
2023-04-06T14:54:48.487Z,14.60
2023-04-06T14:57:15.954Z,16.42
2023-04-06T14:59:43.098Z,14.55
2023-04-06T15:02:10.359Z,18.05
2023-04-06T15:04:37.781Z,15.77
2023-04-06T15:07:05.200Z,15.30
2023-04-06T15:09:32.413Z,15.93
2023-04-06T15:11:59.492Z,16.27
2023-04-06T15:14:26.597Z,17.13
2023-04-06T15:16:53.737Z,18.98
2023-04-06T15:19:20.954Z,15.38
2023-04-06T15:21:48.052Z,15.90
2023-04-06T15:24:15.710Z,16.80
2023-04-06T15:26:42.747Z,14.70
2023-04-06T15:29:09.902Z,18.15
2023-04-06T15:31:38.471Z,13.25
2023-04-06T15:34:08.633Z,15.30
2023-04-06T15:36:36.266Z,19.15
2023-04-06T15:39:04.111Z,16.40
2023-04-06T15:41:31.628Z,14.77
2023-04-06T15:43:58.835Z,13.15
2023-04-06T15:46:28.042Z,14.63
2023-04-06T15:48:55.778Z,12.15
2023-04-06T15:51:24.056Z,13.48
2023-04-06T15:53:51.134Z,17.67
2023-04-06T15:56:18.193Z,16.23
2023-04-06T15:58:45.544Z,32.95
2023-04-06T16:01:13.738Z,15.23
2023-04-06T16:03:40.985Z,14.38
2023-04-06T16:06:09.202Z,15.77
2023-04-06T16:08:36.716Z,12.95
2023-04-06T16:11:04.096Z,14.73
2023-04-06T16:13:31.298Z,15.90
2023-04-06T16:15:58.488Z,15.43
2023-04-06T16:18:25.903Z,12.68
2023-04-06T16:20:52.962Z,14.80
2023-04-06T16:23:20.032Z,13.10
2023-04-06T16:25:47.194Z,12.82
2023-04-06T16:28:14.252Z,13.45
2023-04-06T16:30:43.546Z,13.40
2023-04-06T16:33:13.036Z,14.45
2023-04-06T16:35:46.671Z,12.73
2023-04-06T16:38:14.093Z,11.50
2023-04-06T16:40:41.229Z,14.07
2023-04-06T16:43:09.832Z,10.38
2023-04-06T16:45:37.071Z,11.18
2023-04-06T16:48:04.176Z,12.23
2023-04-06T16:50:31.406Z,14.38
2023-04-06T16:52:58.603Z,13.68
2023-04-06T16:55:25.670Z,9.60
2023-04-06T16:57:55.807Z,15.60
2023-04-06T17:00:23.050Z,10.32
2023-04-06T17:02:50.489Z,10.32
2023-04-06T17:05:21.830Z,10.15
2023-04-06T17:07:49.014Z,10.85
2023-04-06T17:10:17.649Z,11.25
2023-04-06T17:12:47.168Z,9.70
2023-04-06T17:15:14.675Z,12.38
2023-04-06T17:17:41.961Z,13.05
2023-04-06T17:20:09.323Z,11.30
2023-04-06T17:22:36.391Z,8.40
2023-04-06T17:25:05.445Z,9.25
2023-04-06T17:27:32.637Z,8.90
2023-04-06T17:30:04.762Z,9.60
2023-04-06T17:32:32.644Z,9.70
2023-04-06T17:34:59.802Z,10.48
2023-04-06T17:37:26.883Z,11.43
2023-04-06T17:39:54.780Z,11.50
2023-04-06T17:44:54.041Z,12.52
2023-04-06T17:47:21.195Z,10.63
2023-04-06T17:49:49.116Z,9.73
2023-04-06T17:52:16.555Z,9.98
2023-04-06T17:54:43.641Z,10.40
2023-04-06T17:57:11.096Z,10.68
2023-04-06T17:59:38.261Z,11.73
2023-04-06T18:02:06.834Z,9.18
2023-04-06T18:04:34.013Z,10.35
2023-04-06T18:07:01.130Z,9.10
2023-04-06T18:09:28.252Z,10.55
2023-04-06T18:11:56.782Z,10.85
2023-04-06T18:14:24.131Z,13.23
2023-04-06T18:16:51.242Z,8.60
2023-04-06T18:19:18.299Z,12.52
2023-04-06T18:21:45.435Z,8.98
2023-04-06T18:24:22.578Z,10.80
2023-04-06T18:26:54.722Z,11.80
2023-04-06T18:29:21.749Z,20.10
2023-04-06T18:31:51.408Z,12.43
2023-04-06T18:34:18.564Z,13.63
2023-04-06T18:36:45.979Z,11.10
2023-04-06T18:39:14.155Z,10.88
2023-04-06T18:41:41.928Z,8.57
2023-04-06T18:44:08.995Z,10.75
2023-04-06T18:46:36.215Z,9.45
2023-04-06T18:49:04.272Z,12.82
2023-04-06T18:51:34.408Z,13.35
2023-04-06T18:54:02.386Z,12.85
2023-04-06T18:56:29.480Z,9.57
2023-04-06T18:58:56.809Z,10.23
2023-04-06T19:01:24.718Z,10.68
2023-04-06T19:03:52.761Z,27.85
2023-04-06T19:06:20.258Z,10.73
2023-04-06T19:08:47.542Z,9.20
2023-04-06T19:11:14.661Z,15.80
2023-04-06T19:13:41.987Z,7.90
2023-04-06T19:16:12.285Z,7.15
2023-04-06T19:18:42.644Z,5.80
2023-04-06T19:21:19.686Z,10.48
2023-04-06T19:23:46.937Z,6.43
2023-04-06T19:26:14.047Z,7.97
2023-04-06T19:28:41.131Z,7.50
2023-04-06T19:31:08.794Z,6.28
2023-04-06T19:33:36.241Z,6.00
2023-04-06T19:36:03.482Z,7.28
2023-04-06T19:38:30.583Z,9.40
2023-04-06T19:40:57.789Z,5.63
2023-04-06T19:43:24.905Z,5.18
2023-04-06T19:45:52.023Z,6.68
2023-04-06T19:48:19.044Z,8.77
2023-04-06T19:50:46.297Z,8.25
2023-04-06T19:53:13.486Z,10.20
2023-04-06T19:55:40.640Z,10.27
2023-04-06T19:58:07.706Z,8.00
2023-04-06T20:00:34.785Z,9.02
2023-04-06T20:03:01.933Z,10.93
2023-04-06T20:05:29.072Z,11.25
2023-04-06T20:07:56.147Z,9.43
2023-04-06T20:10:23.174Z,10.63
2023-04-06T20:12:50.592Z,12.98
2023-04-06T20:15:18.855Z,10.57
2023-04-06T20:17:46.028Z,12.38
2023-04-06T20:20:13.170Z,14.32
2023-04-06T20:22:41.890Z,11.10
2023-04-06T20:25:10.366Z,10.32
2023-04-06T20:27:37.508Z,12.23
2023-04-06T20:30:05.072Z,13.20
2023-04-06T20:32:33.236Z,13.43
2023-04-06T20:35:00.481Z,15.20
2023-04-06T20:37:27.563Z,11.70
2023-04-06T20:39:54.572Z,13.73
2023-04-06T20:42:23.869Z,14.40
2023-04-06T20:44:51.264Z,15.75
2023-04-06T20:47:18.340Z,14.20
2023-04-06T20:49:46.114Z,14.02
2023-04-06T20:52:13.254Z,14.63
2023-04-06T20:54:40.315Z,12.70
2023-04-06T20:57:07.336Z,15.00
2023-04-06T20:59:34.422Z,14.10
2023-04-06T21:02:01.566Z,14.65
2023-04-06T21:04:28.876Z,15.18
2023-04-06T21:06:56.138Z,19.50
2023-04-06T21:09:24.787Z,15.95
2023-04-06T21:11:51.811Z,22.10
2023-04-06T21:14:21.017Z,19.63
2023-04-06T21:16:48.286Z,15.25
2023-04-06T21:19:15.455Z,16.45
2023-04-06T21:21:42.464Z,16.90
2023-04-06T21:24:09.573Z,16.52
2023-04-06T21:26:36.841Z,19.33
2023-04-06T21:29:03.982Z,16.88
2023-04-06T21:31:31.207Z,14.52
2023-04-06T21:33:58.305Z,19.30
2023-04-06T21:36:25.380Z,18.13
2023-04-06T21:38:52.398Z,20.65
2023-04-06T21:41:19.457Z,16.88
2023-04-06T21:43:46.535Z,22.42
2023-04-06T21:46:13.580Z,18.40
2023-04-06T21:48:40.777Z,19.30
2023-04-06T21:51:07.903Z,20.85
2023-04-06T21:53:35.031Z,20.90
2023-04-06T21:56:02.606Z,25.70
2023-04-06T21:58:29.638Z,23.55
2023-04-06T22:00:56.745Z,25.20
2023-04-06T22:03:24.105Z,22.98
2023-04-06T22:05:51.219Z,25.20
2023-04-06T22:08:32.773Z,28.00
2023-04-06T22:11:00.759Z,28.77
2023-04-06T22:13:28.608Z,28.27
2023-04-06T22:15:55.847Z,32.38
2023-04-06T22:18:22.895Z,31.92
2023-04-06T22:20:49.912Z,35.53
2023-04-06T22:23:16.915Z,33.50
2023-04-06T22:25:43.982Z,33.45
2023-04-06T22:28:11.088Z,37.30
2023-04-06T22:30:38.165Z,35.75
2023-04-06T22:33:05.387Z,36.55
2023-04-06T22:35:32.546Z,37.88
2023-04-06T22:38:01.218Z,40.33
2023-04-06T22:40:28.693Z,35.17
2023-04-06T22:42:55.867Z,33.92
2023-04-06T22:45:22.899Z,37.55
2023-04-06T22:47:50.015Z,35.83
2023-04-06T22:50:17.164Z,36.55
2023-04-06T22:52:44.243Z,35.95
2023-04-06T22:55:11.397Z,40.05
2023-04-06T22:57:38.472Z,39.25
2023-04-06T23:00:06.255Z,41.03
2023-04-06T23:02:33.404Z,37.75
2023-04-06T23:05:00.786Z,35.58
2023-04-06T23:07:27.891Z,35.55
2023-04-06T23:09:54.967Z,37.70
2023-04-06T23:12:23.531Z,35.40
2023-04-06T23:14:50.904Z,38.10
2023-04-06T23:17:18.059Z,40.38
2023-04-06T23:19:45.144Z,38.47
2023-04-06T23:22:12.221Z,40.38
2023-04-06T23:24:39.309Z,38.75
2023-04-06T23:27:06.537Z,41.42
2023-04-06T23:29:33.574Z,55.20
2023-04-06T23:32:01.100Z,59.83
2023-04-06T23:34:28.183Z,63.15
2023-04-06T23:36:55.371Z,53.17
2023-04-06T23:39:22.443Z,52.40
2023-04-06T23:41:49.470Z,44.47
2023-04-06T23:44:16.476Z,49.30
2023-04-06T23:46:43.554Z,41.65
2023-04-06T23:49:10.739Z,49.38
2023-04-06T23:51:37.766Z,49.20
2023-04-06T23:54:04.993Z,51.03
2023-04-06T23:56:32.066Z,47.45
2023-04-06T23:58:59.202Z,43.55
